Time;durP1;ratioP1;P1;durP2;ratioP2;P2;SDS_P1;SDS_P2;PMS_P1;PMS_P2;Temp;Humidity;BMP_temperature;BMP_pressure;BME280_temperature;BME280_humidity;BME280_pressure;Samples;Min_cycle;Max_cycle;Signal;HPM_P1;HPM_P2
2024/01/03 00:01:10;;;;;;;4.53;2.35;;;;;;;;;;5078268;28;20485;-70
2024/01/03 00:03:56;;;;;;;3.78;2.95;;;;;;;;;;5072344;28;20465;-69
2024/01/03 00:06:41;;;;;;;2.65;2.33;;;;;;;;;;5056812;28;20413;-70
2024/01/03 00:09:27;;;;;;;2.92;2.40;;;;;;;;;;5072002;28;20013;-69
2024/01/03 00:12:18;;;;;;;5.03;2.10;;;;;;;;;;5077582;28;20025;-69
2024/01/03 00:15:36;;;;;;;2.47;2.28;;;;;;;;;;5080794;28;20085;-69
2024/01/03 00:18:50;;;;;;;7.90;2.30;;;;;;;;;;5083999;28;20065;-69
2024/01/03 00:21:36;;;;;;;3.78;2.47;;;;;;;;;;5080022;28;20074;-69
2024/01/03 00:24:21;;;;;;;3.63;2.08;;;;;;;;;;5091639;28;20032;-69
2024/01/03 00:27:07;;;;;;;3.08;1.60;;;;;;;;;;5091307;28;20484;-69
2024/01/03 00:29:54;;;;;;;2.60;2.40;;;;;;;;;;5090024;28;20073;-69
2024/01/03 00:32:40;;;;;;;2.42;2.22;;;;;;;;;;5076791;28;20028;-69
2024/01/03 00:35:26;;;;;;;2.45;2.25;;;;;;;;;;5091692;28;20080;-69
2024/01/03 00:38:11;;;;;;;2.53;2.33;;;;;;;;;;5089769;28;20020;-69
2024/01/03 00:40:57;;;;;;;2.58;2.15;;;;;;;;;;5090029;28;20035;-69
2024/01/03 00:43:43;;;;;;;3.17;2.88;;;;;;;;;;5083758;28;20027;-69
2024/01/03 00:46:29;;;;;;;2.30;2.10;;;;;;;;;;5086200;28;20030;-69
2024/01/03 00:49:14;;;;;;;4.03;2.90;;;;;;;;;;5092744;28;20501;-69
2024/01/03 00:52:01;;;;;;;1.92;1.63;;;;;;;;;;5090978;28;20451;-69
2024/01/03 00:54:47;;;;;;;3.03;2.00;;;;;;;;;;5084321;28;20493;-69
2024/01/03 00:57:33;;;;;;;2.10;1.90;;;;;;;;;;5071212;28;20028;-68
2024/01/03 01:00:18;;;;;;;3.13;2.17;;;;;;;;;;5085640;28;20039;-69
2024/01/03 01:03:04;;;;;;;3.80;2.22;;;;;;;;;;5091391;28;20424;-69
2024/01/03 01:05:50;;;;;;;3.00;1.95;;;;;;;;;;5089806;28;20078;-69
2024/01/03 01:08:36;;;;;;;2.40;2.00;;;;;;;;;;5091431;28;20095;-69
2024/01/03 01:11:21;;;;;;;2.45;2.10;;;;;;;;;;5091602;28;20066;-69
2024/01/03 01:14:07;;;;;;;2.47;2.10;;;;;;;;;;5093089;28;20020;-69
2024/01/03 01:16:53;;;;;;;4.00;2.03;;;;;;;;;;5091131;28;20490;-69
2024/01/03 01:19:38;;;;;;;2.85;2.40;;;;;;;;;;5071383;28;20025;-70
2024/01/03 01:22:25;;;;;;;2.63;2.17;;;;;;;;;;5070560;28;20059;-69
2024/01/03 01:25:11;;;;;;;4.28;2.17;;;;;;;;;;5071496;28;20028;-70
2024/01/03 01:27:57;;;;;;;3.40;1.65;;;;;;;;;;5090618;28;20393;-69
2024/01/03 01:30:42;;;;;;;6.53;3.00;;;;;;;;;;5091537;28;20049;-70
2024/01/03 01:33:28;;;;;;;5.15;2.58;;;;;;;;;;5095632;28;20451;-69
2024/01/03 01:36:14;;;;;;;2.47;2.28;;;;;;;;;;5096192;28;20012;-70
2024/01/03 01:39:00;;;;;;;2.90;2.63;;;;;;;;;;5075494;28;20032;-70
2024/01/03 01:41:45;;;;;;;3.72;2.28;;;;;;;;;;5075854;28;20035;-70
2024/01/03 01:44:31;;;;;;;3.25;2.55;;;;;;;;;;5076230;28;20047;-70
2024/01/03 01:47:17;;;;;;;3.67;2.35;;;;;;;;;;5076268;28;20477;-70
2024/01/03 01:50:03;;;;;;;4.57;2.63;;;;;;;;;;5093345;28;20031;-69
2024/01/03 01:52:49;;;;;;;2.63;2.42;;;;;;;;;;5094119;28;20504;-69
2024/01/03 01:55:37;;;;;;;2.42;2.20;;;;;;;;;;5094921;28;20024;-70
2024/01/03 01:58:23;;;;;;;3.40;2.30;;;;;;;;;;5093981;28;20062;-69
2024/01/03 02:01:08;;;;;;;2.58;2.30;;;;;;;;;;5157859;22;20062;-67
2024/01/03 02:03:54;;;;;;;2.20;2.00;;;;;;;;;;5115547;28;20430;-67
2024/01/03 02:06:40;;;;;;;2.40;2.08;;;;;;;;;;5114932;28;20032;-67
2024/01/03 02:09:25;;;;;;;2.72;2.28;;;;;;;;;;5113742;28;20032;-67
2024/01/03 02:12:11;;;;;;;2.28;2.13;;;;;;;;;;5075258;28;20016;-66
2024/01/03 02:14:57;;;;;;;2.45;2.25;;;;;;;;;;5079204;28;20031;-68
2024/01/03 02:17:43;;;;;;;2.83;2.03;;;;;;;;;;5089631;28;20535;-67
2024/01/03 02:20:33;;;;;;;4.32;1.90;;;;;;;;;;5080313;28;20078;-67
2024/01/03 02:23:18;;;;;;;5.70;2.83;;;;;;;;;;5084960;28;20453;-67
2024/01/03 02:26:04;;;;;;;2.97;2.10;;;;;;;;;;5074423;28;20036;-67
2024/01/03 02:28:49;;;;;;;4.93;2.40;;;;;;;;;;5073829;28;20077;-67
2024/01/03 02:31:35;;;;;;;8.00;2.90;;;;;;;;;;5076553;28;20028;-67
2024/01/03 02:34:21;;;;;;;3.08;2.28;;;;;;;;;;5088444;28;20077;-66
2024/01/03 02:37:08;;;;;;;2.92;2.20;;;;;;;;;;5093487;28;20102;-67
2024/01/03 02:39:54;;;;;;;2.90;2.60;;;;;;;;;;5079340;28;20053;-67
2024/01/03 02:42:39;;;;;;;4.75;2.50;;;;;;;;;;5095733;28;20024;-67
2024/01/03 02:45:25;;;;;;;2.53;2.33;;;;;;;;;;5094839;28;20024;-67
2024/01/03 02:48:11;;;;;;;3.60;2.85;;;;;;;;;;5094793;28;20012;-68
2024/01/03 02:50:56;;;;;;;3.33;2.45;;;;;;;;;;5094695;28;20109;-67
2024/01/03 02:53:42;;;;;;;3.92;2.70;;;;;;;;;;5094206;28;20020;-67
2024/01/03 02:56:27;;;;;;;4.28;2.65;;;;;;;;;;5093283;28;20020;-67
2024/01/03 02:59:13;;;;;;;3.38;2.15;;;;;;;;;;5093121;28;20055;-67
2024/01/03 03:01:59;;;;;;;5.63;2.45;;;;;;;;;;5093829;28;20036;-67
2024/01/03 03:04:44;;;;;;;2.58;2.25;;;;;;;;;;5093160;28;20016;-67
2024/01/03 03:07:30;;;;;;;3.33;2.80;;;;;;;;;;5065677;28;20481;-67
2024/01/03 03:10:15;;;;;;;4.32;2.28;;;;;;;;;;5093216;28;20426;-67
2024/01/03 03:13:01;;;;;;;3.85;2.40;;;;;;;;;;5093851;28;20038;-67
2024/01/03 03:15:47;;;;;;;3.03;2.67;;;;;;;;;;5094478;28;20020;-67
2024/01/03 03:18:33;;;;;;;3.90;3.30;;;;;;;;;;5093912;28;20055;-67
2024/01/03 03:21:18;;;;;;;5.50;2.28;;;;;;;;;;5094360;28;20027;-67
2024/01/03 03:24:04;;;;;;;3.95;2.67;;;;;;;;;;5093755;28;20019;-67
2024/01/03 03:26:50;;;;;;;4.18;2.83;;;;;;;;;;5080921;28;20028;-67
2024/01/03 03:29:36;;;;;;;6.43;2.58;;;;;;;;;;5095537;27;20024;-67
2024/01/03 03:32:21;;;;;;;3.40;2.70;;;;;;;;;;5093578;28;20057;-67
2024/01/03 03:35:07;;;;;;;3.05;2.53;;;;;;;;;;5079055;28;20020;-67
2024/01/03 03:37:53;;;;;;;3.47;2.35;;;;;;;;;;5092747;28;20020;-67
2024/01/03 03:40:39;;;;;;;3.05;2.00;;;;;;;;;;5093486;28;20451;-67
2024/01/03 03:43:24;;;;;;;3.97;2.58;;;;;;;;;;5078992;28;20078;-67
2024/01/03 03:46:11;;;;;;;4.82;2.70;;;;;;;;;;5093609;28;20027;-67
2024/01/03 03:48:57;;;;;;;2.50;2.30;;;;;;;;;;5078170;28;20085;-67
2024/01/03 03:51:42;;;;;;;6.47;2.33;;;;;;;;;;5093624;28;20028;-67
2024/01/03 03:54:28;;;;;;;4.10;1.95;;;;;;;;;;5093427;28;20113;-67
2024/01/03 03:57:14;;;;;;;2.38;1.80;;;;;;;;;;5093434;28;20078;-67
2024/01/03 04:00:00;;;;;;;2.65;1.88;;;;;;;;;;5093115;28;20110;-67
2024/01/03 04:02:46;;;;;;;2.75;1.70;;;;;;;;;;5078690;28;20477;-67
2024/01/03 04:05:36;;;;;;;2.30;1.50;;;;;;;;;;5092618;28;20571;-65
2024/01/03 04:08:22;;;;;;;2.22;1.90;;;;;;;;;;5088852;28;20501;-67
2024/01/03 04:11:07;;;;;;;3.85;1.80;;;;;;;;;;5085000;28;20032;-67
2024/01/03 04:13:53;;;;;;;4.32;1.65;;;;;;;;;;5074347;28;20020;-67
2024/01/03 04:16:39;;;;;;;1.98;1.75;;;;;;;;;;5092126;28;20024;-67
2024/01/03 04:19:25;;;;;;;2.25;2.00;;;;;;;;;;5092865;28;20397;-67
2024/01/03 04:22:10;;;;;;;2.42;2.22;;;;;;;;;;5093383;28;20449;-67
2024/01/03 04:24:56;;;;;;;3.65;2.10;;;;;;;;;;5092234;28;20020;-67
2024/01/03 04:27:42;;;;;;;1.83;1.65;;;;;;;;;;5079973;28;20031;-67
2024/01/03 04:30:27;;;;;;;3.08;2.00;;;;;;;;;;5079701;28;20028;-67
2024/01/03 04:33:13;;;;;;;3.13;1.90;;;;;;;;;;5090053;28;20032;-67
2024/01/03 04:35:59;;;;;;;2.20;1.90;;;;;;;;;;5092062;28;20024;-66
2024/01/03 04:38:44;;;;;;;1.83;1.73;;;;;;;;;;5093306;28;20027;-67
2024/01/03 04:41:30;;;;;;;2.47;1.80;;;;;;;;;;5091769;28;20485;-67
2024/01/03 04:44:15;;;;;;;2.38;1.77;;;;;;;;;;5092418;28;20032;-67
2024/01/03 04:47:01;;;;;;;4.95;2.05;;;;;;;;;;5092398;28;20023;-67
2024/01/03 04:49:47;;;;;;;3.13;1.63;;;;;;;;;;5077680;28;20063;-67
2024/01/03 04:52:32;;;;;;;2.50;2.30;;;;;;;;;;5093684;28;20021;-67
2024/01/03 04:55:18;;;;;;;2.95;1.60;;;;;;;;;;5092656;28;20058;-67
2024/01/03 04:58:04;;;;;;;2.13;1.77;;;;;;;;;;5093925;28;20063;-67
2024/01/03 05:00:49;;;;;;;5.75;2.58;;;;;;;;;;5092223;28;20040;-67
2024/01/03 05:03:35;;;;;;;2.45;1.35;;;;;;;;;;5092010;28;20399;-67
2024/01/03 05:06:21;;;;;;;2.20;1.77;;;;;;;;;;5092899;28;20028;-67
2024/01/03 05:09:06;;;;;;;1.85;1.70;;;;;;;;;;5096647;28;20016;-67
2024/01/03 05:11:52;;;;;;;1.98;1.88;;;;;;;;;;5095902;28;20549;-67
2024/01/03 05:14:37;;;;;;;2.60;1.42;;;;;;;;;;5096391;28;20476;-67
2024/01/03 05:17:23;;;;;;;6.25;1.75;;;;;;;;;;5096654;28;20480;-67
2024/01/03 05:20:09;;;;;;;3.25;1.75;;;;;;;;;;5097158;28;20465;-67
2024/01/03 05:22:54;;;;;;;1.75;1.58;;;;;;;;;;5096131;28;20047;-67
2024/01/03 05:25:40;;;;;;;1.55;1.45;;;;;;;;;;5095456;28;20106;-67
2024/01/03 05:28:26;;;;;;;2.08;1.75;;;;;;;;;;5097144;28;20023;-67
2024/01/03 05:31:11;;;;;;;2.85;1.88;;;;;;;;;;5094836;28;20030;-67
2024/01/03 05:33:57;;;;;;;2.03;1.83;;;;;;;;;;5095275;28;20020;-67
2024/01/03 05:36:43;;;;;;;2.30;2.10;;;;;;;;;;5096865;28;20024;-67
2024/01/03 05:39:28;;;;;;;2.58;1.50;;;;;;;;;;5081106;28;20099;-67
2024/01/03 05:42:14;;;;;;;2.30;2.10;;;;;;;;;;5096732;28;20102;-67
2024/01/03 05:45:00;;;;;;;3.10;1.77;;;;;;;;;;5097369;28;20035;-67
2024/01/03 05:47:46;;;;;;;2.40;1.73;;;;;;;;;;5095605;28;20107;-67
2024/01/03 05:50:31;;;;;;;2.45;2.25;;;;;;;;;;5095618;28;20028;-67
2024/01/03 05:53:17;;;;;;;1.85;1.60;;;;;;;;;;5095815;28;20524;-68
2024/01/03 05:56:04;;;;;;;1.23;1.08;;;;;;;;;;5095881;28;20384;-67
2024/01/03 05:58:50;;;;;;;1.92;1.77;;;;;;;;;;5095151;28;20028;-67
2024/01/03 06:01:36;;;;;;;3.53;1.45;;;;;;;;;;5092880;28;20055;-66
2024/01/03 06:04:22;;;;;;;2.08;1.88;;;;;;;;;;5085233;28;20052;-67
2024/01/03 06:07:07;;;;;;;2.78;1.83;;;;;;;;;;5091022;28;20478;-67
2024/01/03 06:09:53;;;;;;;1.60;1.40;;;;;;;;;;5080968;28;20016;-67
2024/01/03 06:12:41;;;;;;;2.30;1.65;;;;;;;;;;5090572;28;20027;-67
2024/01/03 06:15:27;;;;;;;2.15;1.00;;;;;;;;;;5081895;28;20028;-67
2024/01/03 06:18:13;;;;;;;3.40;1.75;;;;;;;;;;5093398;28;20024;-67
2024/01/03 06:20:59;;;;;;;6.10;2.63;;;;;;;;;;5075290;28;20485;-67
2024/01/03 06:23:44;;;;;;;17.58;2.60;;;;;;;;;;5094402;28;20118;-67
2024/01/03 06:26:30;;;;;;;16.83;4.00;;;;;;;;;;5095249;28;20028;-67
2024/01/03 06:29:16;;;;;;;15.70;2.90;;;;;;;;;;5095813;28;20016;-67
2024/01/03 06:32:01;;;;;;;13.57;3.00;;;;;;;;;;5094436;28;20042;-67
2024/01/03 06:34:47;;;;;;;11.57;3.38;;;;;;;;;;5094862;28;20047;-67
2024/01/03 06:37:33;;;;;;;12.77;3.10;;;;;;;;;;5093841;28;20020;-67
2024/01/03 06:40:20;;;;;;;16.98;4.45;;;;;;;;;;5093409;28;20028;-67
2024/01/03 06:43:07;;;;;;;10.95;3.83;;;;;;;;;;5079850;28;20024;-67
2024/01/03 06:45:52;;;;;;;15.23;3.55;;;;;;;;;;5094775;28;20024;-67
2024/01/03 06:48:38;;;;;;;22.80;4.43;;;;;;;;;;5094513;28;20020;-67
2024/01/03 06:51:24;;;;;;;19.25;4.15;;;;;;;;;;5095524;28;20051;-67
2024/01/03 06:54:11;;;;;;;22.63;4.65;;;;;;;;;;5093948;28;20032;-67
2024/01/03 06:56:56;;;;;;;28.83;5.43;;;;;;;;;;5077643;28;20057;-67
2024/01/03 06:59:42;;;;;;;21.85;5.18;;;;;;;;;;5093314;28;20062;-67
2024/01/03 07:02:27;;;;;;;21.92;4.35;;;;;;;;;;5093490;28;20107;-67
2024/01/03 07:05:13;;;;;;;17.02;4.85;;;;;;;;;;5093429;28;20032;-68
2024/01/03 07:07:59;;;;;;;31.10;4.95;;;;;;;;;;5094380;28;20089;-67
2024/01/03 07:10:44;;;;;;;21.00;4.68;;;;;;;;;;5092869;28;20469;-66
2024/01/03 07:13:31;;;;;;;19.40;4.75;;;;;;;;;;5093487;28;20035;-67
2024/01/03 07:16:18;;;;;;;30.48;7.25;;;;;;;;;;5093098;28;20145;-67
2024/01/03 07:19:03;;;;;;;31.13;5.03;;;;;;;;;;5093413;28;20107;-68
2024/01/03 07:21:49;;;;;;;26.35;4.80;;;;;;;;;;5094963;28;20103;-67
2024/01/03 07:24:36;;;;;;;34.97;5.45;;;;;;;;;;5093656;28;20031;-67
2024/01/03 07:27:22;;;;;;;32.65;5.20;;;;;;;;;;5094197;28;20028;-68
2024/01/03 07:30:09;;;;;;;22.17;5.20;;;;;;;;;;5093146;28;20493;-67
2024/01/03 07:32:56;;;;;;;23.80;4.95;;;;;;;;;;5077930;28;20530;-68
2024/01/03 07:35:42;;;;;;;24.92;3.88;;;;;;;;;;5094279;28;20035;-67
2024/01/03 07:38:27;;;;;;;22.08;4.38;;;;;;;;;;5078868;28;20024;-67
2024/01/03 07:41:18;;;;;;;26.38;5.47;;;;;;;;;;5092658;28;20131;-67
2024/01/03 07:44:03;;;;;;;;;;;;;;;;;;5093990;28;20016;-66
2024/01/03 07:46:49;;;;;;;25.02;4.88;;;;;;;;;;5091962;28;19915;-67
2024/01/03 07:49:36;;;;;;;19.40;4.80;;;;;;;;;;5094143;28;20017;-67
2024/01/03 07:52:21;;;;;;;17.85;3.55;;;;;;;;;;5079303;28;20063;-67
2024/01/03 07:55:07;;;;;;;21.33;5.07;;;;;;;;;;5093362;28;20020;-67
2024/01/03 07:57:53;;;;;;;23.20;4.40;;;;;;;;;;5092958;28;20400;-67
2024/01/03 08:00:39;;;;;;;18.90;3.78;;;;;;;;;;5091532;28;20039;-67
2024/01/03 08:03:24;;;;;;;26.27;5.72;;;;;;;;;;5092455;28;20027;-67
2024/01/03 08:06:11;;;;;;;26.92;4.65;;;;;;;;;;5078867;28;20024;-67
2024/01/03 08:08:56;;;;;;;13.68;4.60;;;;;;;;;;5092942;28;20016;-67
2024/01/03 08:11:42;;;;;;;30.77;4.53;;;;;;;;;;5093013;28;20034;-67
2024/01/03 08:14:27;;;;;;;24.27;4.40;;;;;;;;;;5076681;28;20020;-67
2024/01/03 08:17:13;;;;;;;12.68;3.40;;;;;;;;;;5090909;28;20198;-67
2024/01/03 08:19:59;;;;;;;27.98;5.15;;;;;;;;;;5091836;28;20020;-67
2024/01/03 08:22:46;;;;;;;25.33;4.63;;;;;;;;;;5091453;28;20046;-67
2024/01/03 08:25:32;;;;;;;30.05;4.95;;;;;;;;;;5092510;28;20034;-67
2024/01/03 08:28:17;;;;;;;26.83;4.75;;;;;;;;;;5062701;28;20012;-67
2024/01/03 08:31:03;;;;;;;33.42;4.57;;;;;;;;;;5077659;28;20027;-67
2024/01/03 08:33:49;;;;;;;27.52;5.78;;;;;;;;;;5078869;28;20110;-67
2024/01/03 08:36:39;;;;;;;29.60;5.68;;;;;;;;;;5076332;28;20513;-67
2024/01/03 08:39:25;;;;;;;;;;;;;;;;;;5077176;28;20083;-66
2024/01/03 08:42:10;;;;;;;28.63;5.05;;;;;;;;;;5091871;28;20006;-67
2024/01/03 08:44:56;;;;;;;17.90;5.05;;;;;;;;;;5092654;28;20024;-67
2024/01/03 08:47:42;;;;;;;31.05;5.57;;;;;;;;;;5091992;28;20415;-67
2024/01/03 08:50:27;;;;;;;26.83;5.57;;;;;;;;;;5075289;28;20020;-67
2024/01/03 08:55:21;;;;;;;27.95;5.55;;;;;;;;;;5091214;28;20329;-68
2024/01/03 08:58:08;;;;;;;16.83;4.40;;;;;;;;;;5089146;28;20162;-68
2024/01/03 09:00:54;;;;;;;12.23;3.28;;;;;;;;;;5068802;28;20458;-68
2024/01/03 09:03:39;;;;;;;12.98;3.33;;;;;;;;;;5083947;28;20016;-68
2024/01/03 09:06:25;;;;;;;18.73;3.25;;;;;;;;;;5089832;28;20052;-68
2024/01/03 09:09:11;;;;;;;18.85;3.65;;;;;;;;;;5088815;28;20090;-68
2024/01/03 09:11:56;;;;;;;17.92;4.00;;;;;;;;;;5089587;28;20157;-68
2024/01/03 09:14:42;;;;;;;21.70;3.60;;;;;;;;;;5088722;28;20052;-68
2024/01/03 09:17:28;;;;;;;29.88;4.57;;;;;;;;;;5088943;28;20052;-68
2024/01/03 09:20:15;;;;;;;33.40;4.38;;;;;;;;;;5086020;28;20034;-68
2024/01/03 09:23:01;;;;;;;31.35;5.25;;;;;;;;;;5087832;28;20028;-68
2024/01/03 09:25:46;;;;;;;26.17;4.88;;;;;;;;;;5070574;28;20024;-68
2024/01/03 09:28:34;;;;;;;27.55;4.57;;;;;;;;;;5069717;28;20512;-68
2024/01/03 09:31:19;;;;;;;29.15;3.97;;;;;;;;;;5065756;28;20024;-68
2024/01/03 09:34:05;;;;;;;26.73;4.28;;;;;;;;;;5068449;28;20031;-68
2024/01/03 09:36:53;;;;;;;18.10;4.85;;;;;;;;;;5069619;28;20028;-68
2024/01/03 09:39:39;;;;;;;19.95;3.55;;;;;;;;;;5086719;28;20023;-68
2024/01/03 09:42:26;;;;;;;29.25;5.03;;;;;;;;;;5087919;28;20028;-68
2024/01/03 09:45:11;;;;;;;22.15;4.45;;;;;;;;;;5088088;28;20028;-68
2024/01/03 09:47:57;;;;;;;24.13;3.85;;;;;;;;;;5087301;28;20063;-68
2024/01/03 09:50:43;;;;;;;23.05;4.05;;;;;;;;;;5087994;28;20032;-68
2024/01/03 09:53:30;;;;;;;17.23;3.15;;;;;;;;;;5089024;28;20032;-68
2024/01/03 09:56:16;;;;;;;18.25;2.83;;;;;;;;;;5088114;28;20162;-68
2024/01/03 09:59:02;;;;;;;29.30;4.72;;;;;;;;;;5087613;28;20024;-68
2024/01/03 10:01:55;;;;;;;20.83;4.18;;;;;;;;;;5087670;28;20073;-68
2024/01/03 10:04:44;;;;;;;30.45;4.93;;;;;;;;;;5084738;28;20021;-68
2024/01/03 10:07:34;;;;;;;32.00;4.32;;;;;;;;;;5066738;28;20450;-68
2024/01/03 10:10:33;;;;;;;19.60;3.10;;;;;;;;;;5066617;28;20102;-68
2024/01/03 10:13:20;;;;;;;20.67;3.20;;;;;;;;;;5067411;28;20028;-69
2024/01/03 10:16:05;;;;;;;21.40;4.68;;;;;;;;;;5074039;28;20501;-68
2024/01/03 10:19:12;;;;;;;20.88;4.45;;;;;;;;;;5073925;28;20028;-68
2024/01/03 10:21:59;;;;;;;12.20;3.53;;;;;;;;;;5073642;28;20062;-68
2024/01/03 10:24:48;;;;;;;16.70;3.05;;;;;;;;;;5074142;28;20024;-68
2024/01/03 10:27:33;;;;;;;28.17;4.30;;;;;;;;;;5074006;28;20567;-68
2024/01/03 10:30:19;;;;;;;12.60;3.47;;;;;;;;;;5068209;28;20033;-68
2024/01/03 10:33:06;;;;;;;11.50;2.30;;;;;;;;;;5057824;28;20036;-67
2024/01/03 10:35:52;;;;;;;13.13;2.47;;;;;;;;;;5060189;28;20516;-68
2024/01/03 10:38:39;;;;;;;7.25;2.28;;;;;;;;;;5060371;28;20147;-69
2024/01/03 10:41:25;;;;;;;13.77;2.75;;;;;;;;;;5057374;28;20028;-69
2024/01/03 10:44:13;;;;;;;9.20;2.42;;;;;;;;;;5061009;28;20060;-69
2024/01/03 10:46:58;;;;;;;9.25;1.92;;;;;;;;;;5059299;28;20036;-69
2024/01/03 10:49:44;;;;;;;9.27;2.45;;;;;;;;;;5064126;28;20032;-68
2024/01/03 10:52:31;;;;;;;8.93;2.70;;;;;;;;;;5059859;28;20185;-69
2024/01/03 10:55:22;;;;;;;8.48;2.70;;;;;;;;;;5055564;28;20028;-69
2024/01/03 10:58:20;;;;;;;4.82;1.80;;;;;;;;;;5056232;28;20028;-69
2024/01/03 11:01:12;;;;;;;18.80;2.25;;;;;;;;;;5062532;28;20078;-69
2024/01/03 11:04:16;;;;;;;10.45;2.53;;;;;;;;;;5058715;28;20017;-68
2024/01/03 11:07:07;;;;;;;9.05;2.20;;;;;;;;;;5060723;28;20112;-68
2024/01/03 11:09:53;;;;;;;13.80;2.58;;;;;;;;;;5058153;28;20061;-68
2024/01/03 11:12:38;;;;;;;10.60;2.92;;;;;;;;;;5057038;28;20452;-68
2024/01/03 11:15:24;;;;;;;12.20;3.22;;;;;;;;;;5065649;28;20028;-68
2024/01/03 11:18:10;;;;;;;10.15;2.33;;;;;;;;;;5072171;28;20028;-68
2024/01/03 11:20:55;;;;;;;7.30;2.28;;;;;;;;;;5052339;28;20033;-68
2024/01/03 11:23:41;;;;;;;12.55;2.05;;;;;;;;;;5061142;28;20028;-68
2024/01/03 11:26:58;;;;;;;7.13;2.13;;;;;;;;;;5071714;28;20055;-68
2024/01/03 11:29:45;;;;;;;13.20;2.97;;;;;;;;;;5072853;28;20398;-68
2024/01/03 11:32:32;;;;;;;5.28;1.80;;;;;;;;;;5072834;28;20028;-68
2024/01/03 11:35:46;;;;;;;13.00;2.22;;;;;;;;;;5071966;28;20029;-68
2024/01/03 11:38:42;;;;;;;13.20;2.38;;;;;;;;;;5053404;28;20078;-68
2024/01/03 11:41:29;;;;;;;7.20;2.03;;;;;;;;;;5052865;28;20064;-68
2024/01/03 11:44:21;;;;;;;15.25;2.40;;;;;;;;;;5052932;28;20043;-68
2024/01/03 11:47:07;;;;;;;9.93;1.98;;;;;;;;;;5053146;28;20025;-68
2024/01/03 11:49:56;;;;;;;5.38;1.77;;;;;;;;;;5054788;28;20028;-69
2024/01/03 11:52:49;;;;;;;9.43;2.10;;;;;;;;;;5051539;28;20025;-68
2024/01/03 11:55:34;;;;;;;6.15;1.52;;;;;;;;;;5053289;28;20445;-68
2024/01/03 11:58:20;;;;;;;7.75;1.67;;;;;;;;;;5053152;28;20021;-68
2024/01/03 12:01:09;;;;;;;4.95;1.77;;;;;;;;;;5052747;28;20056;-68
2024/01/03 12:04:11;;;;;;;6.93;1.65;;;;;;;;;;5061381;28;20142;-68
2024/01/03 12:06:57;;;;;;;5.00;1.85;;;;;;;;;;5053765;28;20108;-68
2024/01/03 12:09:43;;;;;;;13.48;3.15;;;;;;;;;;5058136;28;20460;-68
2024/01/03 12:12:29;;;;;;;7.75;2.20;;;;;;;;;;5070179;28;20020;-68
2024/01/03 12:15:25;;;;;;;7.70;2.90;;;;;;;;;;5067254;28;20379;-67
2024/01/03 12:18:11;;;;;;;12.20;1.90;;;;;;;;;;5050795;28;20041;-68
2024/01/03 12:20:57;;;;;;;5.38;1.67;;;;;;;;;;5055272;28;20028;-68
2024/01/03 12:24:01;;;;;;;4.10;1.45;;;;;;;;;;5070087;28;20478;-68
2024/01/03 12:26:50;;;;;;;2.08;1.20;;;;;;;;;;5068019;28;20035;-68
2024/01/03 12:29:36;;;;;;;6.72;1.48;;;;;;;;;;5052447;28;20029;-68
2024/01/03 12:32:22;;;;;;;1.45;1.05;;;;;;;;;;5052021;28;20418;-68
2024/01/03 12:35:08;;;;;;;8.00;1.33;;;;;;;;;;5071372;28;20020;-68
2024/01/03 12:37:53;;;;;;;4.90;1.65;;;;;;;;;;5071883;28;20039;-68
2024/01/03 12:40:39;;;;;;;5.85;1.42;;;;;;;;;;5070452;28;20023;-68
2024/01/03 12:43:25;;;;;;;1.98;1.27;;;;;;;;;;5070840;28;20485;-68
2024/01/03 12:46:11;;;;;;;13.35;2.55;;;;;;;;;;5070982;28;20094;-68
2024/01/03 12:48:56;;;;;;;6.78;2.63;;;;;;;;;;5069465;28;20121;-68
2024/01/03 12:51:42;;;;;;;8.65;3.40;;;;;;;;;;5071454;28;20024;-68
2024/01/03 12:54:28;;;;;;;5.78;1.73;;;;;;;;;;5060091;28;20086;-68
2024/01/03 12:57:14;;;;;;;7.05;2.58;;;;;;;;;;5064791;28;20029;-68
2024/01/03 13:00:01;;;;;;;9.50;1.50;;;;;;;;;;5057323;28;20021;-68
2024/01/03 13:02:46;;;;;;;2.95;2.08;;;;;;;;;;5071790;28;20070;-68
2024/01/03 13:05:32;;;;;;;6.53;1.48;;;;;;;;;;5068402;28;20477;-68
2024/01/03 13:08:18;;;;;;;3.72;1.65;;;;;;;;;;5069737;28;20025;-68
2024/01/03 13:11:04;;;;;;;6.28;2.40;;;;;;;;;;5070962;28;20405;-68
2024/01/03 13:13:49;;;;;;;2.35;1.33;;;;;;;;;;5068353;28;20086;-68
2024/01/03 13:16:38;;;;;;;3.72;1.92;;;;;;;;;;5064032;28;20033;-68
2024/01/03 13:19:23;;;;;;;5.40;1.58;;;;;;;;;;5059680;28;20031;-68
2024/01/03 13:22:10;;;;;;;4.80;1.45;;;;;;;;;;5052733;28;20490;-68
2024/01/03 13:24:55;;;;;;;2.55;1.20;;;;;;;;;;5061178;28;20024;-68
2024/01/03 13:27:41;;;;;;;1.98;1.38;;;;;;;;;;5070588;28;20033;-68
2024/01/03 13:30:28;;;;;;;5.63;1.42;;;;;;;;;;5069352;28;20451;-65
2024/01/03 13:33:14;;;;;;;2.38;1.77;;;;;;;;;;5056206;28;20035;-65
2024/01/03 13:35:59;;;;;;;5.93;2.22;;;;;;;;;;5052680;28;20398;-65
2024/01/03 13:38:45;;;;;;;6.13;1.45;;;;;;;;;;5052171;28;20017;-67
2024/01/03 13:41:30;;;;;;;5.38;2.30;;;;;;;;;;5057916;28;20021;-67
2024/01/03 13:44:16;;;;;;;2.78;1.25;;;;;;;;;;5054824;28;20021;-68
2024/01/03 13:47:02;;;;;;;7.47;1.60;;;;;;;;;;5064084;28;20323;-68
2024/01/03 13:49:47;;;;;;;6.13;1.50;;;;;;;;;;5074423;28;20036;-68
2024/01/03 13:52:33;;;;;;;8.65;1.52;;;;;;;;;;5063017;28;20553;-66
2024/01/03 13:55:19;;;;;;;5.75;1.42;;;;;;;;;;5056017;28;20036;-65
2024/01/03 13:58:04;;;;;;;3.72;1.48;;;;;;;;;;5063416;28;20055;-66
2024/01/03 14:00:50;;;;;;;9.52;2.40;;;;;;;;;;5098455;22;20031;-73
2024/01/03 14:03:35;;;;;;;2.72;2.53;;;;;;;;;;5074637;28;20413;-72
2024/01/03 14:06:22;;;;;;;2.00;1.40;;;;;;;;;;5073463;28;20032;-73
2024/01/03 14:09:07;;;;;;;5.40;1.73;;;;;;;;;;5071945;28;20078;-73
2024/01/03 14:11:53;;;;;;;8.10;1.55;;;;;;;;;;5058622;28;20016;-73
2024/01/03 14:14:39;;;;;;;1.90;1.33;;;;;;;;;;5074733;28;20113;-73
2024/01/03 14:17:24;;;;;;;3.72;1.58;;;;;;;;;;5071332;28;20025;-72
2024/01/03 14:20:13;;;;;;;7.20;1.88;;;;;;;;;;5070200;28;20559;-73
2024/01/03 14:22:58;;;;;;;2.30;2.10;;;;;;;;;;5067310;28;20405;-72
2024/01/03 14:25:44;;;;;;;2.67;1.30;;;;;;;;;;5075069;28;20020;-73
2024/01/03 14:28:30;;;;;;;1.45;1.27;;;;;;;;;;5073782;28;20111;-73
2024/01/03 14:31:16;;;;;;;1.65;1.38;;;;;;;;;;5073279;28;20056;-73
2024/01/03 14:34:02;;;;;;;0.98;0.93;;;;;;;;;;5072460;28;20020;-72
2024/01/03 14:37:07;;;;;;;5.68;1.52;;;;;;;;;;5072177;28;20067;-73
2024/01/03 14:39:53;;;;;;;1.88;1.63;;;;;;;;;;5058647;28;20490;-72
2024/01/03 14:42:42;;;;;;;5.15;1.63;;;;;;;;;;5072168;28;20060;-73
2024/01/03 14:45:30;;;;;;;3.60;1.42;;;;;;;;;;5054381;28;20013;-73
2024/01/03 14:48:16;;;;;;;3.15;1.20;;;;;;;;;;5056001;28;20017;-73
2024/01/03 14:51:06;;;;;;;3.20;1.50;;;;;;;;;;5073950;28;20547;-73
2024/01/03 14:53:52;;;;;;;6.72;1.20;;;;;;;;;;5059263;28;20511;-73
2024/01/03 14:56:38;;;;;;;2.53;1.70;;;;;;;;;;5059582;28;20120;-73
2024/01/03 14:59:23;;;;;;;10.15;4.55;;;;;;;;;;5059195;28;20043;-73
2024/01/03 15:02:09;;;;;;;4.00;2.03;;;;;;;;;;5054895;28;20020;-73
2024/01/03 15:04:55;;;;;;;2.83;2.05;;;;;;;;;;5064854;28;20481;-73
2024/01/03 15:07:40;;;;;;;3.42;2.55;;;;;;;;;;5054549;28;20405;-73
2024/01/03 15:10:26;;;;;;;11.40;3.00;;;;;;;;;;5039623;28;20021;-73
2024/01/03 15:13:12;;;;;;;4.35;2.67;;;;;;;;;;5054486;28;20021;-74
2024/01/03 15:15:58;;;;;;;3.17;2.53;;;;;;;;;;5039294;28;20469;-73
2024/01/03 15:18:44;;;;;;;3.25;2.10;;;;;;;;;;5071400;28;20028;-72
2024/01/03 15:21:30;;;;;;;4.90;2.60;;;;;;;;;;5057202;28;20044;-72
2024/01/03 15:24:15;;;;;;;4.13;2.85;;;;;;;;;;5052959;28;20017;-73
2024/01/03 15:27:05;;;;;;;3.92;2.25;;;;;;;;;;5054353;28;20021;-72
2024/01/03 15:29:50;;;;;;;1.73;1.60;;;;;;;;;;5039074;28;20036;-72
2024/01/03 15:32:36;;;;;;;1.65;1.52;;;;;;;;;;5071603;28;20021;-71
2024/01/03 15:35:22;;;;;;;5.22;1.40;;;;;;;;;;5073018;28;20025;-72
2024/01/03 15:38:08;;;;;;;4.40;1.70;;;;;;;;;;5053605;28;20032;-71
2024/01/03 15:40:53;;;;;;;2.80;2.03;;;;;;;;;;5072439;28;20021;-72
2024/01/03 15:43:39;;;;;;;2.90;2.70;;;;;;;;;;5073138;28;20401;-72
2024/01/03 15:46:26;;;;;;;3.25;1.67;;;;;;;;;;5072980;28;20029;-72
2024/01/03 15:49:11;;;;;;;2.97;1.70;;;;;;;;;;5068252;28;20024;-72
2024/01/03 15:52:08;;;;;;;2.20;1.48;;;;;;;;;;5072623;28;20036;-73
2024/01/03 15:54:54;;;;;;;3.97;1.70;;;;;;;;;;5059531;28;20048;-72
2024/01/03 15:57:41;;;;;;;5.10;1.50;;;;;;;;;;5072839;28;20029;-72
2024/01/03 16:00:27;;;;;;;4.03;1.73;;;;;;;;;;5052702;28;20040;-72
2024/01/03 16:03:12;;;;;;;6.13;2.22;;;;;;;;;;5052136;28;20029;-73
2024/01/03 16:05:58;;;;;;;7.38;2.28;;;;;;;;;;5062690;28;20047;-73
2024/01/03 16:08:44;;;;;;;4.57;2.00;;;;;;;;;;5071617;28;20028;-73
2024/01/03 16:11:29;;;;;;;2.10;1.75;;;;;;;;;;5069943;28;20051;-73
2024/01/03 16:14:15;;;;;;;6.43;1.90;;;;;;;;;;5053509;28;20024;-72
2024/01/03 16:17:01;;;;;;;2.15;1.95;;;;;;;;;;5072713;28;20545;-72
2024/01/03 16:19:46;;;;;;;3.30;1.75;;;;;;;;;;5058089;28;20035;-72
2024/01/03 16:22:32;;;;;;;4.50;2.03;;;;;;;;;;5071955;28;20024;-73
2024/01/03 16:25:20;;;;;;;2.20;1.60;;;;;;;;;;5069201;28;20029;-72
2024/01/03 16:28:07;;;;;;;2.00;1.80;;;;;;;;;;5053176;28;20058;-73
2024/01/03 16:30:53;;;;;;;3.47;2.03;;;;;;;;;;5052839;28;20060;-73
2024/01/03 16:33:39;;;;;;;1.90;1.52;;;;;;;;;;5058112;28;20024;-73
2024/01/03 16:36:25;;;;;;;5.30;1.70;;;;;;;;;;5058340;28;20032;-73
2024/01/03 16:39:13;;;;;;;4.60;1.75;;;;;;;;;;5071977;28;20054;-72